createdAt,value
2018-03-19T00:00:42.023Z,6.68
2018-03-19T00:03:09.606Z,6.97
2018-03-19T00:05:37.199Z,7.18
2018-03-19T00:08:04.803Z,6.18
2018-03-19T00:10:33.158Z,7.00
2018-03-19T00:13:00.743Z,7.75
2018-03-19T00:15:29.096Z,6.60
2018-03-19T00:17:56.687Z,6.95
2018-03-19T00:20:25.044Z,6.53
2018-03-19T00:22:52.628Z,7.20
2018-03-19T00:25:20.978Z,8.52
2018-03-19T00:27:48.611Z,7.62
2018-03-19T00:30:16.179Z,6.20
2018-03-19T00:32:43.773Z,6.75
2018-03-19T00:35:11.379Z,7.65
2018-03-19T00:37:39.726Z,7.50
2018-03-19T00:40:07.323Z,7.05
2018-03-19T00:42:35.676Z,6.35
2018-03-19T00:45:03.309Z,7.75
2018-03-19T00:47:30.947Z,6.35
2018-03-19T00:49:58.552Z,6.22
2018-03-19T00:52:26.140Z,6.62
2018-03-19T00:54:53.733Z,6.60
2018-03-19T00:57:22.102Z,6.78
2018-03-19T00:59:49.691Z,6.70
2018-03-19T01:02:17.280Z,6.45
2018-03-19T01:04:44.871Z,6.50
2018-03-19T01:07:12.454Z,6.65
2018-03-19T01:09:40.045Z,6.65
2018-03-19T01:12:08.399Z,6.93
2018-03-19T01:14:35.983Z,6.40
2018-03-19T01:17:04.391Z,5.75
2018-03-19T01:19:31.974Z,5.97
2018-03-19T01:21:59.563Z,5.57
2018-03-19T01:24:27.147Z,6.18
2018-03-19T01:26:54.735Z,6.78
2018-03-19T01:29:22.319Z,6.53
2018-03-19T01:31:49.907Z,5.90
2018-03-19T01:34:17.495Z,5.93
2018-03-19T01:36:45.127Z,5.65
2018-03-19T01:39:12.719Z,5.57
2018-03-19T01:41:40.323Z,6.32
2018-03-19T01:44:08.689Z,6.10
2018-03-19T01:46:36.365Z,5.65
2018-03-19T01:49:04.714Z,6.25
2018-03-19T01:51:32.300Z,6.85
2018-03-19T01:54:00.711Z,6.15
2018-03-19T01:56:28.309Z,5.80
2018-03-19T01:58:55.947Z,6.40
2018-03-19T02:01:23.539Z,7.12
2018-03-19T02:03:51.131Z,6.10
2018-03-19T02:06:18.743Z,5.90
2018-03-19T02:08:46.339Z,5.37
2018-03-19T02:11:13.923Z,5.70
2018-03-19T02:13:41.507Z,5.60
2018-03-19T02:16:09.909Z,5.30
2018-03-19T02:18:38.258Z,6.30
2018-03-19T02:21:05.847Z,5.75
2018-03-19T02:23:34.204Z,5.32
2018-03-19T02:26:01.790Z,7.07
2018-03-19T02:28:30.144Z,6.80
2018-03-19T02:30:57.735Z,6.07
2018-03-19T02:33:26.091Z,5.57
2018-03-19T02:35:53.703Z,5.62
2018-03-19T02:38:21.296Z,5.50
2018-03-19T02:40:48.879Z,4.60
2018-03-19T02:43:16.471Z,5.40
2018-03-19T02:45:44.832Z,6.37
2018-03-19T02:48:12.466Z,5.62
2018-03-19T02:50:40.055Z,5.30
2018-03-19T02:53:07.647Z,5.00
2018-03-19T02:55:35.269Z,4.85
2018-03-19T02:58:02.876Z,6.12
2018-03-19T03:00:31.232Z,4.93
2018-03-19T03:02:58.822Z,5.68
2018-03-19T03:05:27.183Z,5.25
2018-03-19T03:07:54.787Z,5.28
2018-03-19T03:10:23.142Z,5.80
2018-03-19T03:12:50.751Z,4.85
2018-03-19T03:15:18.339Z,5.53
2018-03-19T03:17:45.922Z,4.80
2018-03-19T03:20:13.511Z,5.82
2018-03-19T03:22:41.102Z,6.60
2018-03-19T03:25:08.742Z,4.82
2018-03-19T03:27:37.104Z,6.20
2018-03-19T03:30:04.783Z,5.78
2018-03-19T03:32:32.382Z,5.72
2018-03-19T03:34:59.968Z,4.75
2018-03-19T03:37:27.606Z,6.18
2018-03-19T03:39:55.963Z,6.57
2018-03-19T03:42:23.550Z,5.20
2018-03-19T03:44:51.903Z,5.15
2018-03-19T03:47:19.494Z,5.80
2018-03-19T03:49:47.822Z,5.75
2018-03-19T03:52:15.376Z,6.03
2018-03-19T03:54:42.939Z,5.25
2018-03-19T03:57:10.494Z,5.93
2018-03-19T03:59:38.050Z,5.25
2018-03-19T04:02:05.615Z,4.53
2018-03-19T04:04:33.190Z,5.35
2018-03-19T04:07:00.742Z,5.70
2018-03-19T04:09:28.298Z,5.87
2018-03-19T04:11:56.622Z,5.30
2018-03-19T04:14:24.174Z,5.35
2018-03-19T04:16:51.726Z,5.40
2018-03-19T04:19:19.278Z,5.65
2018-03-19T04:21:46.874Z,6.18
2018-03-19T04:24:14.478Z,5.15
2018-03-19T04:26:42.010Z,5.22
2018-03-19T04:29:09.566Z,5.37
2018-03-19T04:31:37.177Z,6.32
2018-03-19T04:34:04.702Z,5.50
2018-03-19T04:36:32.258Z,5.70
2018-03-19T04:38:59.812Z,6.90
2018-03-19T04:41:27.376Z,6.25
2018-03-19T04:43:54.930Z,5.90
2018-03-19T04:46:22.483Z,7.18
2018-03-19T04:48:50.041Z,5.97
2018-03-19T04:51:18.392Z,6.70
2018-03-19T04:53:45.975Z,5.60
2018-03-19T04:56:14.325Z,6.18
2018-03-19T04:58:41.919Z,6.12
2018-03-19T05:01:10.320Z,6.28
2018-03-19T05:03:37.906Z,6.95
2018-03-19T05:06:05.491Z,5.95
2018-03-19T05:08:33.076Z,6.03
2018-03-19T05:11:00.676Z,6.95
2018-03-19T05:13:29.027Z,8.50
2018-03-19T05:15:56.611Z,7.68
2018-03-19T05:18:24.986Z,8.45
2018-03-19T05:20:52.572Z,14.30
2018-03-19T05:23:20.162Z,10.52
2018-03-19T05:25:47.750Z,9.45
2018-03-19T05:28:15.349Z,9.85
2018-03-19T05:30:43.699Z,7.87
2018-03-19T05:33:11.350Z,11.65
2018-03-19T05:35:38.971Z,11.98
2018-03-19T05:38:07.323Z,9.68
2018-03-19T05:40:34.908Z,9.60
2018-03-19T05:43:03.262Z,9.50
2018-03-19T05:45:30.846Z,8.75
2018-03-19T05:47:58.438Z,9.48
2018-03-19T05:50:26.027Z,8.30
2018-03-19T05:52:53.652Z,7.53
2018-03-19T05:55:22.003Z,7.95
2018-03-19T05:57:49.643Z,6.53
2018-03-19T06:00:17.299Z,7.72
2018-03-19T06:02:44.886Z,7.87
2018-03-19T06:05:12.471Z,7.47
2018-03-19T06:07:40.068Z,8.43
2018-03-19T06:10:08.427Z,7.55
2018-03-19T06:12:36.016Z,8.50
2018-03-19T06:15:04.379Z,8.15
2018-03-19T06:17:31.963Z,9.18
2018-03-19T06:19:59.551Z,11.02
2018-03-19T06:22:27.138Z,10.98
2018-03-19T06:24:54.723Z,11.38
2018-03-19T06:27:22.310Z,7.15
2018-03-19T06:29:50.664Z,7.60
2018-03-19T06:32:18.255Z,8.68
2018-03-19T06:34:45.839Z,7.80
2018-03-19T06:37:14.192Z,7.87
2018-03-19T06:39:41.782Z,7.80
2018-03-19T06:42:10.131Z,8.75
2018-03-19T06:44:37.735Z,8.05
2018-03-19T06:47:05.324Z,9.93
2018-03-19T06:49:32.907Z,7.35
2018-03-19T06:52:00.496Z,8.55
2018-03-19T06:54:28.078Z,8.40
2018-03-19T06:56:56.426Z,8.82
2018-03-19T06:59:24.020Z,9.57
2018-03-19T07:01:51.609Z,8.88
2018-03-19T07:04:19.203Z,10.57
2018-03-19T07:06:46.783Z,9.50
2018-03-19T07:09:14.372Z,8.45
2018-03-19T07:11:41.962Z,9.02
2018-03-19T07:14:09.562Z,8.27
2018-03-19T07:16:37.151Z,10.57
2018-03-19T07:19:04.734Z,9.98
2018-03-19T07:21:32.323Z,9.70
2018-03-19T07:23:59.912Z,9.50
2018-03-19T07:26:27.507Z,9.93
2018-03-19T07:28:55.119Z,10.18
2018-03-19T07:31:22.726Z,10.68
2018-03-19T07:33:50.322Z,9.65
2018-03-19T07:36:17.910Z,10.80
2018-03-19T07:38:46.267Z,10.55
2018-03-19T07:41:13.868Z,10.27
2018-03-19T07:43:41.459Z,10.52
2018-03-19T07:46:09.051Z,10.60
2018-03-19T07:48:36.698Z,9.73
2018-03-19T07:51:04.293Z,10.30
2018-03-19T07:53:31.887Z,11.85
2018-03-19T07:55:59.523Z,10.07
2018-03-19T07:58:27.114Z,9.50
2018-03-19T08:00:55.475Z,10.43
2018-03-19T08:03:23.063Z,9.52
2018-03-19T08:05:51.416Z,9.32
2018-03-19T08:08:19.043Z,9.02
2018-03-19T08:10:46.656Z,10.77
2018-03-19T08:13:15.015Z,10.63
2018-03-19T08:15:43.383Z,10.32
2018-03-19T08:18:10.975Z,9.93
2018-03-19T08:20:38.563Z,9.50
2018-03-19T08:23:06.919Z,8.45
2018-03-19T08:25:34.502Z,10.15
2018-03-19T08:28:02.860Z,9.75
2018-03-19T08:30:30.506Z,10.45
2018-03-19T08:32:58.102Z,8.75
2018-03-19T08:35:25.695Z,9.10
2018-03-19T08:37:53.283Z,8.38
2018-03-19T08:40:20.882Z,7.43
2018-03-19T08:42:48.484Z,8.35
2018-03-19T08:45:16.830Z,7.18
2018-03-19T08:47:44.418Z,6.50
2018-03-19T08:50:12.007Z,6.70
2018-03-19T08:52:39.594Z,7.45
2018-03-19T08:55:07.180Z,8.20
2018-03-19T08:57:34.782Z,7.90
2018-03-19T09:00:03.176Z,8.57
2018-03-19T09:02:31.531Z,7.60
2018-03-19T09:04:59.118Z,8.13
2018-03-19T09:07:26.715Z,7.93
2018-03-19T09:09:54.298Z,9.50
2018-03-19T09:12:21.891Z,8.65
2018-03-19T09:14:49.470Z,6.75
2018-03-19T09:17:17.118Z,7.70
2018-03-19T09:19:44.742Z,6.43
2018-03-19T09:22:12.356Z,7.87
2018-03-19T09:24:39.938Z,6.80
2018-03-19T09:27:07.536Z,7.35
2018-03-19T09:29:35.136Z,7.57
2018-03-19T09:32:02.774Z,8.00
2018-03-19T09:34:30.358Z,6.75
2018-03-19T09:36:57.955Z,6.93
2018-03-19T09:39:26.314Z,8.02
2018-03-19T09:41:53.928Z,7.75
2018-03-19T09:44:21.528Z,6.95
2018-03-19T09:46:49.127Z,7.45
2018-03-19T09:49:16.731Z,7.47
2018-03-19T09:51:44.314Z,7.72
2018-03-19T09:54:11.913Z,7.60
2018-03-19T09:56:39.508Z,7.40
2018-03-19T09:59:07.859Z,8.38
2018-03-19T10:01:35.454Z,8.55
2018-03-19T10:04:03.848Z,8.18
2018-03-19T10:06:31.562Z,7.87
2018-03-19T10:08:59.122Z,8.65
2018-03-19T10:11:26.730Z,9.40
2018-03-19T10:13:54.360Z,8.48
2018-03-19T10:16:21.954Z,7.62
2018-03-19T10:18:50.312Z,7.60
2018-03-19T10:21:17.914Z,7.00
2018-03-19T10:23:45.504Z,7.53
2018-03-19T10:26:13.087Z,7.40
2018-03-19T10:28:40.796Z,9.63
2018-03-19T10:31:09.196Z,7.95
2018-03-19T10:33:36.787Z,6.47
2018-03-19T10:36:04.424Z,7.68
2018-03-19T10:38:32.855Z,9.55
2018-03-19T10:41:00.439Z,7.60
2018-03-19T10:43:28.035Z,7.60
2018-03-19T10:45:56.394Z,7.37
2018-03-19T10:48:24.048Z,8.30
2018-03-19T10:50:51.635Z,8.60
2018-03-19T10:53:19.982Z,7.82
2018-03-19T10:55:47.571Z,7.80
2018-03-19T10:58:15.159Z,11.85
2018-03-19T11:00:42.751Z,7.97
2018-03-19T11:03:10.354Z,8.80
2018-03-19T11:05:43.598Z,8.80
2018-03-19T11:08:11.207Z,8.55
2018-03-19T11:10:38.789Z,8.82
2018-03-19T11:13:06.379Z,8.23
2018-03-19T11:15:33.974Z,8.50
2018-03-19T11:18:01.561Z,9.57
2018-03-19T11:20:29.180Z,9.88
2018-03-19T11:22:56.778Z,7.72
2018-03-19T11:25:24.403Z,7.15
2018-03-19T11:27:52.764Z,7.37
2018-03-19T11:30:20.394Z,7.78
2018-03-19T11:32:47.978Z,7.03
2018-03-19T11:35:15.563Z,6.45
2018-03-19T11:37:43.959Z,5.93
2018-03-19T11:40:12.313Z,7.57
2018-03-19T11:42:39.895Z,5.97
2018-03-19T11:45:08.251Z,6.45
2018-03-19T11:47:35.834Z,6.07
2018-03-19T11:50:03.438Z,5.80
2018-03-19T11:52:31.048Z,6.43
2018-03-19T11:54:58.635Z,6.62
2018-03-19T11:57:26.234Z,6.00
2018-03-19T11:59:53.818Z,6.00
2018-03-19T12:02:21.501Z,5.87
2018-03-19T12:04:49.141Z,6.03
2018-03-19T12:07:16.715Z,6.28
2018-03-19T12:09:44.380Z,6.93
2018-03-19T12:12:11.979Z,7.47
2018-03-19T12:14:40.339Z,5.65
2018-03-19T12:17:07.922Z,5.45
2018-03-19T12:19:35.539Z,5.62
2018-03-19T12:22:03.132Z,6.25
2018-03-19T12:24:30.719Z,5.95
2018-03-19T12:26:58.408Z,5.25
2018-03-19T12:29:26.766Z,5.87
2018-03-19T12:31:54.352Z,5.30
2018-03-19T12:34:22.742Z,5.43
2018-03-19T12:36:52.935Z,8.70
2018-03-19T12:39:20.527Z,14.80
2018-03-19T12:41:48.236Z,6.95
2018-03-19T12:44:16.427Z,5.30
2018-03-19T12:46:44.050Z,6.68
2018-03-19T12:49:12.395Z,6.20
2018-03-19T12:51:39.979Z,7.25
2018-03-19T12:54:07.774Z,7.53
2018-03-19T12:56:35.366Z,6.62
2018-03-19T12:59:02.986Z,7.25
2018-03-19T13:01:31.364Z,7.43
2018-03-19T13:03:59.735Z,7.65
2018-03-19T13:06:27.324Z,7.25
2018-03-19T13:08:56.939Z,7.55
2018-03-19T13:11:24.508Z,7.72
2018-03-19T13:13:52.104Z,7.70
2018-03-19T13:16:19.688Z,7.72
2018-03-19T13:18:47.269Z,7.85
2018-03-19T13:21:15.056Z,8.50
2018-03-19T13:23:43.423Z,7.60
2018-03-19T13:26:11.011Z,7.70
2018-03-19T13:28:39.434Z,7.03
2018-03-19T13:31:07.157Z,7.90
2018-03-19T13:33:34.758Z,7.37
2018-03-19T13:36:02.455Z,8.50
2018-03-19T13:38:30.039Z,7.18
2018-03-19T13:40:57.618Z,8.10
2018-03-19T13:43:25.219Z,8.23
2018-03-19T13:45:52.843Z,8.52
2018-03-19T13:48:21.195Z,7.90
2018-03-19T13:50:48.916Z,7.90
2018-03-19T13:53:16.654Z,8.15
2018-03-19T13:55:44.243Z,7.65
2018-03-19T13:58:11.839Z,10.38
2018-03-19T14:00:49.594Z,8.02
2018-03-19T14:03:17.949Z,7.75
2018-03-19T14:05:45.539Z,8.32
2018-03-19T14:08:13.887Z,8.32
2018-03-19T14:10:41.638Z,7.20
2018-03-19T14:13:09.222Z,8.02
2018-03-19T14:15:36.803Z,8.55
2018-03-19T14:18:04.390Z,7.90
2018-03-19T14:20:32.169Z,8.55
2018-03-19T14:22:59.752Z,7.62
2018-03-19T14:25:27.355Z,7.62
2018-03-19T14:27:54.984Z,7.80
2018-03-19T14:30:22.734Z,7.85
2018-03-19T14:32:50.320Z,8.80
2018-03-19T14:35:17.910Z,8.40
2018-03-19T14:37:45.526Z,8.40
2018-03-19T14:40:13.121Z,6.75
2018-03-19T14:42:42.165Z,7.65
2018-03-19T14:45:09.754Z,7.75
2018-03-19T14:47:37.395Z,8.77
2018-03-19T14:50:05.013Z,9.05
2018-03-19T14:52:32.602Z,8.73
2018-03-19T14:55:00.190Z,8.18
2018-03-19T14:57:27.790Z,8.02
2018-03-19T14:59:55.385Z,7.10
2018-03-19T15:02:22.975Z,7.55
2018-03-19T15:04:50.574Z,8.23
2018-03-19T15:07:19.007Z,8.43
2018-03-19T15:09:46.586Z,7.70
2018-03-19T15:12:14.171Z,8.38
2018-03-19T15:14:42.519Z,7.65
2018-03-19T15:17:10.147Z,8.38
2018-03-19T15:19:37.744Z,8.77
2018-03-19T15:22:05.412Z,7.35
2018-03-19T15:24:32.998Z,7.93
2018-03-19T15:27:00.578Z,8.32
2018-03-19T15:29:28.971Z,8.50
2018-03-19T15:31:57.327Z,7.40
2018-03-19T15:34:24.919Z,8.60
2018-03-19T15:36:53.294Z,7.45
2018-03-19T15:39:21.646Z,7.45
2018-03-19T15:41:49.239Z,7.18
2018-03-19T15:44:17.595Z,7.62
2018-03-19T15:46:45.178Z,7.30
2018-03-19T15:49:12.767Z,8.13
2018-03-19T15:51:41.363Z,8.82
2018-03-19T15:54:08.950Z,7.55
2018-03-19T15:56:36.535Z,7.57
2018-03-19T15:59:04.165Z,7.78
2018-03-19T16:01:31.750Z,6.70
2018-03-19T16:03:59.343Z,7.40
2018-03-19T16:06:26.927Z,7.10
2018-03-19T16:08:55.273Z,7.60
2018-03-19T16:11:22.858Z,7.07
2018-03-19T16:13:50.446Z,7.57
2018-03-19T16:16:18.868Z,7.25
2018-03-19T16:18:46.508Z,7.50
2018-03-19T16:21:14.112Z,7.57
2018-03-19T16:23:41.726Z,8.05
2018-03-19T16:26:10.074Z,7.70
2018-03-19T16:28:37.659Z,6.70
2018-03-19T16:31:05.247Z,7.00
2018-03-19T16:33:33.604Z,7.53
2018-03-19T16:36:01.200Z,6.93
2018-03-19T16:38:28.815Z,6.90
2018-03-19T16:40:56.411Z,7.55
2018-03-19T16:43:24.009Z,6.45
2018-03-19T16:45:51.698Z,7.47
2018-03-19T16:48:20.050Z,7.93
2018-03-19T16:50:47.722Z,7.25
2018-03-19T16:53:15.318Z,7.78
2018-03-19T16:55:43.115Z,7.95
2018-03-19T16:58:10.720Z,7.25
2018-03-19T17:00:38.757Z,7.57
2018-03-19T17:03:10.406Z,7.68
2018-03-19T17:05:38.211Z,6.80
2018-03-19T17:08:05.926Z,7.85
2018-03-19T17:10:33.510Z,7.90
2018-03-19T17:13:01.111Z,6.90
2018-03-19T17:15:28.730Z,7.45
2018-03-19T17:17:56.394Z,7.45
2018-03-19T17:20:23.978Z,6.85
2018-03-19T17:22:51.591Z,8.35
2018-03-19T17:25:19.431Z,9.30
2018-03-19T17:27:47.779Z,7.93
2018-03-19T17:30:15.359Z,8.90
2018-03-19T17:32:43.066Z,11.38
2018-03-19T17:35:10.679Z,10.50
2018-03-19T17:37:38.315Z,8.27
2018-03-19T17:40:05.907Z,8.75
2018-03-19T17:42:33.491Z,8.57
2018-03-19T17:45:01.079Z,8.30
2018-03-19T17:47:28.754Z,8.13
2018-03-19T17:49:56.281Z,8.48
2018-03-19T17:52:23.875Z,7.10
2018-03-19T17:54:52.351Z,6.30
2018-03-19T17:57:20.719Z,11.65
2018-03-19T17:59:48.313Z,14.25
2018-03-19T18:02:16.295Z,14.48
2018-03-19T18:04:43.883Z,12.52
2018-03-19T18:07:11.508Z,12.82
2018-03-19T18:09:39.098Z,10.65
2018-03-19T18:12:06.731Z,12.30
2018-03-19T18:14:35.263Z,13.25
2018-03-19T18:17:02.910Z,11.38
2018-03-19T18:19:30.500Z,10.93
2018-03-19T18:21:58.106Z,9.10
2018-03-19T18:24:26.459Z,9.65
2018-03-19T18:26:54.051Z,9.57
2018-03-19T18:29:22.402Z,8.30
2018-03-19T18:31:49.987Z,8.07
2018-03-19T18:34:17.607Z,13.77
2018-03-19T18:36:45.200Z,13.30
2018-03-19T18:39:12.802Z,11.65
2018-03-19T18:41:41.163Z,8.93
2018-03-19T18:44:08.803Z,8.40
2018-03-19T18:46:37.154Z,8.30
2018-03-19T18:49:04.751Z,9.13
2018-03-19T18:51:37.611Z,8.63
2018-03-19T18:54:05.300Z,8.07
2018-03-19T18:56:35.549Z,7.90
2018-03-19T18:59:03.140Z,9.93
2018-03-19T19:01:31.630Z,10.45
2018-03-19T19:04:00.275Z,17.40
2018-03-19T19:06:27.918Z,19.62
2018-03-19T19:08:55.568Z,19.60
2018-03-19T19:11:23.223Z,18.73
2018-03-19T19:13:50.828Z,17.85
2018-03-19T19:16:18.466Z,18.92
2018-03-19T19:18:46.056Z,22.13
2018-03-19T19:21:16.674Z,28.50
2018-03-19T19:23:44.266Z,24.27
2018-03-19T19:26:11.854Z,28.02
2018-03-19T19:28:39.462Z,23.12
2018-03-19T19:31:07.058Z,17.80
2018-03-19T19:33:34.651Z,16.75
2018-03-19T19:36:02.239Z,15.30
2018-03-19T19:38:30.591Z,13.90
2018-03-19T19:40:58.184Z,14.32
2018-03-19T19:43:25.801Z,17.48
2018-03-19T19:45:53.388Z,20.85
2018-03-19T19:48:20.994Z,17.95
2018-03-19T19:50:48.598Z,15.20
2018-03-19T19:53:16.212Z,15.15
2018-03-19T19:55:44.564Z,13.62
2018-03-19T19:58:13.030Z,13.45
2018-03-19T20:00:40.678Z,15.52
2018-03-19T20:03:08.266Z,16.92
2018-03-19T20:05:35.854Z,25.92
2018-03-19T20:08:03.536Z,21.60
2018-03-19T20:10:31.923Z,21.45
2018-03-19T20:13:00.300Z,14.02
2018-03-19T20:15:28.670Z,11.82
2018-03-19T20:17:56.260Z,12.27
2018-03-19T20:20:23.952Z,13.95
2018-03-19T20:22:51.584Z,19.20
2018-03-19T20:25:20.013Z,23.65
2018-03-19T20:27:47.598Z,22.83
2018-03-19T20:30:15.202Z,23.55
2018-03-19T20:32:42.787Z,20.52
2018-03-19T20:35:10.367Z,18.62
2018-03-19T20:37:37.969Z,14.70
2018-03-19T20:40:05.602Z,29.27
2018-03-19T20:42:33.192Z,18.73
2018-03-19T20:45:00.784Z,22.77
2018-03-19T20:47:29.131Z,15.98
2018-03-19T20:49:57.489Z,23.42
2018-03-19T20:52:25.083Z,16.80
2018-03-19T20:54:52.666Z,14.90
2018-03-19T20:57:20.254Z,17.67
2018-03-19T20:59:47.843Z,15.63
2018-03-19T21:02:15.464Z,13.85
2018-03-19T21:04:43.826Z,22.02
2018-03-19T21:07:11.415Z,18.42
2018-03-19T21:09:39.788Z,33.10
2018-03-19T21:12:07.385Z,29.45
2018-03-19T21:14:34.982Z,25.62
2018-03-19T21:17:02.566Z,23.98
2018-03-19T21:19:30.151Z,19.67
2018-03-19T21:21:57.739Z,16.45
2018-03-19T21:24:25.351Z,15.13
2018-03-19T21:26:52.940Z,13.68
2018-03-19T21:29:20.526Z,15.82
2018-03-19T21:31:48.873Z,12.73
2018-03-19T21:34:16.457Z,13.32
2018-03-19T21:36:44.831Z,14.77
2018-03-19T21:39:12.431Z,14.60
2018-03-19T21:41:40.031Z,13.50
2018-03-19T21:44:07.614Z,12.37
2018-03-19T21:46:35.203Z,12.27
2018-03-19T21:49:03.567Z,11.82
2018-03-19T21:51:31.150Z,11.88
2018-03-19T21:53:58.758Z,9.95
2018-03-19T21:56:26.346Z,11.38
2018-03-19T21:58:54.703Z,9.70
2018-03-19T22:01:22.559Z,10.45
2018-03-19T22:03:50.179Z,10.60
2018-03-19T22:06:17.820Z,10.35
2018-03-19T22:08:45.410Z,9.95
2018-03-19T22:11:12.999Z,13.38
2018-03-19T22:13:41.349Z,11.07
2018-03-19T22:16:08.939Z,11.65
2018-03-19T22:18:37.286Z,12.10
2018-03-19T22:21:04.875Z,14.55
2018-03-19T22:23:32.493Z,14.87
2018-03-19T22:26:00.129Z,15.60
2018-03-19T22:28:28.538Z,12.40
2018-03-19T22:30:56.123Z,16.25
2018-03-19T22:33:24.483Z,13.70
2018-03-19T22:35:52.071Z,20.27
2018-03-19T22:38:19.657Z,15.90
2018-03-19T22:40:47.248Z,15.52
2018-03-19T22:43:15.604Z,13.62
2018-03-19T22:45:43.195Z,27.00
2018-03-19T22:48:11.558Z,16.60
2018-03-19T22:50:39.143Z,17.45
2018-03-19T22:53:07.497Z,17.42
2018-03-19T22:55:35.082Z,19.87
2018-03-19T22:58:03.491Z,20.40
2018-03-19T23:00:31.106Z,13.85
2018-03-19T23:02:58.742Z,22.65
2018-03-19T23:05:26.331Z,17.30
2018-03-19T23:07:53.919Z,19.35
2018-03-19T23:10:21.502Z,17.08
2018-03-19T23:12:49.860Z,22.37
2018-03-19T23:15:17.450Z,15.18
2018-03-19T23:17:45.806Z,21.08
2018-03-19T23:20:13.398Z,22.48
2018-03-19T23:22:41.750Z,21.12
2018-03-19T23:25:09.335Z,19.95
2018-03-19T23:27:37.700Z,13.80
2018-03-19T23:30:05.310Z,18.65
2018-03-19T23:32:32.909Z,15.32
2018-03-19T23:35:00.498Z,19.10
2018-03-19T23:37:28.083Z,17.17
2018-03-19T23:39:56.477Z,18.42
2018-03-19T23:42:24.082Z,12.57
2018-03-19T23:44:51.719Z,12.35
2018-03-19T23:47:19.301Z,16.40
2018-03-19T23:49:46.914Z,18.52
2018-03-19T23:52:15.276Z,14.50
2018-03-19T23:54:42.868Z,21.73
2018-03-19T23:57:11.228Z,11.32
2018-03-19T23:59:38.819Z,10.70
